sensor_id;sensor_type;location;lat;lon;timestamp;P1;durP1;ratioP1;P2;durP2;ratioP2
59788;SDS011;47353;51.614;5.530;2023-08-21T00:01:05;7.50;;;2.50;;
59788;SDS011;47353;51.614;5.530;2023-08-21T00:03:30;8.98;;;2.90;;
59788;SDS011;47353;51.614;5.530;2023-08-21T00:05:56;6.13;;;2.78;;
59788;SDS011;47353;51.614;5.530;2023-08-21T00:08:21;7.78;;;2.65;;
59788;SDS011;47353;51.614;5.530;2023-08-21T00:10:47;8.75;;;2.97;;
59788;SDS011;47353;51.614;5.530;2023-08-21T00:13:12;7.90;;;2.95;;
59788;SDS011;47353;51.614;5.530;2023-08-21T00:15:38;8.63;;;3.05;;
59788;SDS011;47353;51.614;5.530;2023-08-21T00:18:04;9.23;;;2.97;;
59788;SDS011;47353;51.614;5.530;2023-08-21T00:20:30;6.82;;;2.83;;
59788;SDS011;47353;51.614;5.530;2023-08-21T00:22:56;12.05;;;3.00;;
59788;SDS011;47353;51.614;5.530;2023-08-21T00:25:21;5.90;;;3.20;;
59788;SDS011;47353;51.614;5.530;2023-08-21T00:27:47;5.70;;;3.08;;
59788;SDS011;47353;51.614;5.530;2023-08-21T00:30:12;5.65;;;3.05;;
59788;SDS011;47353;51.614;5.530;2023-08-21T00:32:40;7.45;;;3.20;;
59788;SDS011;47353;51.614;5.530;2023-08-21T00:35:06;9.10;;;2.92;;
59788;SDS011;47353;51.614;5.530;2023-08-21T00:37:31;7.72;;;3.05;;
59788;SDS011;47353;51.614;5.530;2023-08-21T00:39:57;8.90;;;2.92;;
59788;SDS011;47353;51.614;5.530;2023-08-21T00:42:22;7.20;;;3.22;;
59788;SDS011;47353;51.614;5.530;2023-08-21T00:44:47;8.88;;;3.05;;
59788;SDS011;47353;51.614;5.530;2023-08-21T00:47:13;11.13;;;3.35;;
59788;SDS011;47353;51.614;5.530;2023-08-21T00:49:38;7.72;;;3.13;;
59788;SDS011;47353;51.614;5.530;2023-08-21T00:52:04;7.38;;;3.25;;
59788;SDS011;47353;51.614;5.530;2023-08-21T00:54:34;5.70;;;3.05;;
59788;SDS011;47353;51.614;5.530;2023-08-21T00:56:59;9.07;;;3.45;;
59788;SDS011;47353;51.614;5.530;2023-08-21T00:59:26;7.55;;;3.33;;
59788;SDS011;47353;51.614;5.530;2023-08-21T01:01:51;5.90;;;3.05;;
59788;SDS011;47353;51.614;5.530;2023-08-21T01:04:17;7.28;;;3.47;;
59788;SDS011;47353;51.614;5.530;2023-08-21T01:06:42;9.20;;;3.28;;
59788;SDS011;47353;51.614;5.530;2023-08-21T01:17:24;8.00;;;3.10;;
59788;SDS011;47353;51.614;5.530;2023-08-21T01:19:51;8.07;;;2.80;;
59788;SDS011;47353;51.614;5.530;2023-08-21T01:22:18;10.60;;;2.92;;
59788;SDS011;47353;51.614;5.530;2023-08-21T01:24:43;6.65;;;3.15;;
59788;SDS011;47353;51.614;5.530;2023-08-21T01:27:09;8.52;;;3.42;;
59788;SDS011;47353;51.614;5.530;2023-08-21T01:29:35;9.77;;;3.22;;
59788;SDS011;47353;51.614;5.530;2023-08-21T01:34:37;10.50;;;4.45;;
59788;SDS011;47353;51.614;5.530;2023-08-21T01:37:04;8.77;;;4.50;;
59788;SDS011;47353;51.614;5.530;2023-08-21T01:39:31;12.50;;;5.40;;
59788;SDS011;47353;51.614;5.530;2023-08-21T01:41:57;7.60;;;4.90;;
59788;SDS011;47353;51.614;5.530;2023-08-21T01:44:23;12.20;;;4.43;;
59788;SDS011;47353;51.614;5.530;2023-08-21T01:46:49;8.32;;;4.30;;
59788;SDS011;47353;51.614;5.530;2023-08-21T01:49:14;10.77;;;4.32;;
59788;SDS011;47353;51.614;5.530;2023-08-21T01:51:40;11.32;;;4.05;;
59788;SDS011;47353;51.614;5.530;2023-08-21T01:54:05;9.18;;;3.60;;
59788;SDS011;47353;51.614;5.530;2023-08-21T01:56:31;9.05;;;3.50;;
59788;SDS011;47353;51.614;5.530;2023-08-21T01:58:56;8.20;;;4.30;;
59788;SDS011;47353;51.614;5.530;2023-08-21T02:01:21;6.32;;;3.28;;
59788;SDS011;47353;51.614;5.530;2023-08-21T02:03:48;10.32;;;4.10;;
59788;SDS011;47353;51.614;5.530;2023-08-21T02:06:13;8.15;;;3.95;;
59788;SDS011;47353;51.614;5.530;2023-08-21T02:08:39;8.07;;;4.20;;
59788;SDS011;47353;51.614;5.530;2023-08-21T02:11:05;11.18;;;4.30;;
59788;SDS011;47353;51.614;5.530;2023-08-21T02:13:30;8.20;;;3.70;;
59788;SDS011;47353;51.614;5.530;2023-08-21T02:15:57;6.82;;;4.00;;
59788;SDS011;47353;51.614;5.530;2023-08-21T02:18:23;8.60;;;4.30;;
59788;SDS011;47353;51.614;5.530;2023-08-21T02:20:49;8.80;;;4.47;;
59788;SDS011;47353;51.614;5.530;2023-08-21T02:23:14;7.97;;;3.67;;
59788;SDS011;47353;51.614;5.530;2023-08-21T02:25:40;11.63;;;4.43;;
59788;SDS011;47353;51.614;5.530;2023-08-21T02:28:06;7.20;;;4.00;;
59788;SDS011;47353;51.614;5.530;2023-08-21T02:30:31;10.65;;;4.35;;
59788;SDS011;47353;51.614;5.530;2023-08-21T02:32:57;8.48;;;4.60;;
59788;SDS011;47353;51.614;5.530;2023-08-21T02:35:22;8.90;;;4.70;;
59788;SDS011;47353;51.614;5.530;2023-08-21T02:37:47;9.70;;;5.03;;
59788;SDS011;47353;51.614;5.530;2023-08-21T02:40:13;9.85;;;5.43;;
59788;SDS011;47353;51.614;5.530;2023-08-21T02:42:39;10.23;;;5.20;;
59788;SDS011;47353;51.614;5.530;2023-08-21T02:45:04;13.32;;;6.00;;
59788;SDS011;47353;51.614;5.530;2023-08-21T02:47:39;9.65;;;5.18;;
59788;SDS011;47353;51.614;5.530;2023-08-21T02:50:06;14.88;;;5.97;;
59788;SDS011;47353;51.614;5.530;2023-08-21T02:52:33;10.95;;;5.90;;
59788;SDS011;47353;51.614;5.530;2023-08-21T02:54:59;9.00;;;5.25;;
59788;SDS011;47353;51.614;5.530;2023-08-21T02:57:25;11.70;;;5.55;;
59788;SDS011;47353;51.614;5.530;2023-08-21T02:59:51;9.23;;;5.45;;
59788;SDS011;47353;51.614;5.530;2023-08-21T03:02:17;11.57;;;5.47;;
59788;SDS011;47353;51.614;5.530;2023-08-21T03:04:43;9.13;;;5.10;;
59788;SDS011;47353;51.614;5.530;2023-08-21T03:07:09;9.63;;;5.28;;
59788;SDS011;47353;51.614;5.530;2023-08-21T03:09:35;10.07;;;5.47;;
59788;SDS011;47353;51.614;5.530;2023-08-21T03:12:01;8.88;;;5.65;;
59788;SDS011;47353;51.614;5.530;2023-08-21T03:14:27;11.95;;;5.88;;
59788;SDS011;47353;51.614;5.530;2023-08-21T03:16:52;9.02;;;6.00;;
59788;SDS011;47353;51.614;5.530;2023-08-21T03:19:18;9.77;;;5.63;;
59788;SDS011;47353;51.614;5.530;2023-08-21T03:21:43;9.32;;;5.80;;
59788;SDS011;47353;51.614;5.530;2023-08-21T03:24:09;11.27;;;5.72;;
59788;SDS011;47353;51.614;5.530;2023-08-21T03:26:34;9.30;;;5.45;;
59788;SDS011;47353;51.614;5.530;2023-08-21T03:28:59;12.10;;;5.68;;
59788;SDS011;47353;51.614;5.530;2023-08-21T03:31:25;10.43;;;5.75;;
59788;SDS011;47353;51.614;5.530;2023-08-21T03:33:51;9.80;;;6.15;;
59788;SDS011;47353;51.614;5.530;2023-08-21T03:36:16;8.80;;;5.80;;
59788;SDS011;47353;51.614;5.530;2023-08-21T03:38:41;12.30;;;5.97;;
59788;SDS011;47353;51.614;5.530;2023-08-21T03:41:07;10.40;;;6.22;;
59788;SDS011;47353;51.614;5.530;2023-08-21T03:43:32;10.80;;;6.10;;
59788;SDS011;47353;51.614;5.530;2023-08-21T03:45:58;10.70;;;6.15;;
59788;SDS011;47353;51.614;5.530;2023-08-21T03:48:23;8.52;;;5.97;;
59788;SDS011;47353;51.614;5.530;2023-08-21T03:50:49;12.07;;;6.20;;
59788;SDS011;47353;51.614;5.530;2023-08-21T03:53:15;14.60;;;6.25;;
59788;SDS011;47353;51.614;5.530;2023-08-21T03:55:40;11.35;;;6.38;;
59788;SDS011;47353;51.614;5.530;2023-08-21T03:58:06;17.25;;;7.00;;
59788;SDS011;47353;51.614;5.530;2023-08-21T04:00:31;10.27;;;6.38;;
59788;SDS011;47353;51.614;5.530;2023-08-21T04:02:57;14.98;;;6.47;;
59788;SDS011;47353;51.614;5.530;2023-08-21T04:05:23;11.02;;;5.80;;
59788;SDS011;47353;51.614;5.530;2023-08-21T04:07:48;11.38;;;6.22;;
59788;SDS011;47353;51.614;5.530;2023-08-21T04:10:14;10.63;;;6.03;;
59788;SDS011;47353;51.614;5.530;2023-08-21T04:12:41;12.23;;;6.90;;
59788;SDS011;47353;51.614;5.530;2023-08-21T04:15:06;10.57;;;6.70;;
59788;SDS011;47353;51.614;5.530;2023-08-21T04:17:32;13.30;;;6.75;;
59788;SDS011;47353;51.614;5.530;2023-08-21T04:19:58;12.55;;;6.40;;
59788;SDS011;47353;51.614;5.530;2023-08-21T04:22:23;14.35;;;7.10;;
59788;SDS011;47353;51.614;5.530;2023-08-21T04:24:48;10.48;;;6.82;;
59788;SDS011;47353;51.614;5.530;2023-08-21T04:27:14;12.20;;;6.97;;
59788;SDS011;47353;51.614;5.530;2023-08-21T04:29:39;13.40;;;7.18;;
59788;SDS011;47353;51.614;5.530;2023-08-21T04:32:05;12.88;;;6.90;;
59788;SDS011;47353;51.614;5.530;2023-08-21T04:34:34;13.80;;;6.90;;
59788;SDS011;47353;51.614;5.530;2023-08-21T04:36:59;12.60;;;7.15;;
59788;SDS011;47353;51.614;5.530;2023-08-21T04:39:25;15.07;;;7.70;;
59788;SDS011;47353;51.614;5.530;2023-08-21T04:41:50;15.55;;;7.70;;
59788;SDS011;47353;51.614;5.530;2023-08-21T04:44:16;12.60;;;7.57;;
59788;SDS011;47353;51.614;5.530;2023-08-21T04:46:41;12.93;;;7.75;;
59788;SDS011;47353;51.614;5.530;2023-08-21T04:49:07;12.63;;;7.18;;
59788;SDS011;47353;51.614;5.530;2023-08-21T04:51:33;14.95;;;7.47;;
59788;SDS011;47353;51.614;5.530;2023-08-21T04:53:59;17.85;;;8.18;;
59788;SDS011;47353;51.614;5.530;2023-08-21T04:56:24;12.75;;;8.05;;
59788;SDS011;47353;51.614;5.530;2023-08-21T04:58:51;13.23;;;7.85;;
59788;SDS011;47353;51.614;5.530;2023-08-21T05:01:17;14.02;;;8.10;;
59788;SDS011;47353;51.614;5.530;2023-08-21T05:03:42;12.38;;;7.55;;
59788;SDS011;47353;51.614;5.530;2023-08-21T05:06:08;13.73;;;7.90;;
59788;SDS011;47353;51.614;5.530;2023-08-21T05:08:33;11.43;;;7.40;;
59788;SDS011;47353;51.614;5.530;2023-08-21T05:10:59;15.15;;;8.70;;
59788;SDS011;47353;51.614;5.530;2023-08-21T05:13:26;15.48;;;9.15;;
59788;SDS011;47353;51.614;5.530;2023-08-21T05:15:55;14.68;;;9.57;;
59788;SDS011;47353;51.614;5.530;2023-08-21T05:18:23;18.92;;;9.40;;
59788;SDS011;47353;51.614;5.530;2023-08-21T05:20:49;18.00;;;9.85;;
59788;SDS011;47353;51.614;5.530;2023-08-21T05:23:15;13.98;;;8.80;;
59788;SDS011;47353;51.614;5.530;2023-08-21T05:25:42;16.05;;;8.82;;
59788;SDS011;47353;51.614;5.530;2023-08-21T05:28:08;13.32;;;8.60;;
59788;SDS011;47353;51.614;5.530;2023-08-21T05:30:33;12.63;;;8.48;;
59788;SDS011;47353;51.614;5.530;2023-08-21T05:33:01;17.55;;;9.05;;
59788;SDS011;47353;51.614;5.530;2023-08-21T05:35:26;14.80;;;8.63;;
59788;SDS011;47353;51.614;5.530;2023-08-21T05:37:51;15.38;;;9.40;;
59788;SDS011;47353;51.614;5.530;2023-08-21T05:40:17;15.13;;;9.80;;
59788;SDS011;47353;51.614;5.530;2023-08-21T05:42:42;13.63;;;9.65;;
59788;SDS011;47353;51.614;5.530;2023-08-21T05:45:08;14.38;;;9.52;;
59788;SDS011;47353;51.614;5.530;2023-08-21T05:47:33;14.50;;;9.15;;
59788;SDS011;47353;51.614;5.530;2023-08-21T05:49:59;13.05;;;9.38;;
59788;SDS011;47353;51.614;5.530;2023-08-21T05:52:24;14.55;;;9.05;;
59788;SDS011;47353;51.614;5.530;2023-08-21T05:54:50;15.32;;;9.30;;
59788;SDS011;47353;51.614;5.530;2023-08-21T05:57:15;15.45;;;9.90;;
59788;SDS011;47353;51.614;5.530;2023-08-21T05:59:45;13.40;;;8.98;;
59788;SDS011;47353;51.614;5.530;2023-08-21T06:02:11;13.50;;;9.10;;
59788;SDS011;47353;51.614;5.530;2023-08-21T06:04:39;15.98;;;8.73;;
59788;SDS011;47353;51.614;5.530;2023-08-21T06:07:06;12.40;;;8.48;;
59788;SDS011;47353;51.614;5.530;2023-08-21T06:09:31;16.50;;;9.25;;
59788;SDS011;47353;51.614;5.530;2023-08-21T06:11:59;17.00;;;9.40;;
59788;SDS011;47353;51.614;5.530;2023-08-21T06:14:26;15.40;;;8.68;;
59788;SDS011;47353;51.614;5.530;2023-08-21T06:16:59;17.00;;;8.65;;
59788;SDS011;47353;51.614;5.530;2023-08-21T06:19:25;13.32;;;8.32;;
59788;SDS011;47353;51.614;5.530;2023-08-21T06:21:50;16.75;;;7.80;;
59788;SDS011;47353;51.614;5.530;2023-08-21T06:24:16;17.00;;;7.90;;
59788;SDS011;47353;51.614;5.530;2023-08-21T06:26:41;11.65;;;8.07;;
59788;SDS011;47353;51.614;5.530;2023-08-21T06:29:07;15.85;;;7.60;;
59788;SDS011;47353;51.614;5.530;2023-08-21T06:31:32;15.52;;;7.30;;
59788;SDS011;47353;51.614;5.530;2023-08-21T06:33:58;13.63;;;6.80;;
59788;SDS011;47353;51.614;5.530;2023-08-21T06:36:23;12.18;;;7.20;;
59788;SDS011;47353;51.614;5.530;2023-08-21T06:38:49;13.50;;;7.00;;
59788;SDS011;47353;51.614;5.530;2023-08-21T06:41:14;11.82;;;6.72;;
59788;SDS011;47353;51.614;5.530;2023-08-21T06:43:39;12.63;;;6.72;;
59788;SDS011;47353;51.614;5.530;2023-08-21T06:46:05;11.38;;;6.38;;
59788;SDS011;47353;51.614;5.530;2023-08-21T06:48:30;11.30;;;6.35;;
59788;SDS011;47353;51.614;5.530;2023-08-21T06:50:56;10.05;;;6.30;;
59788;SDS011;47353;51.614;5.530;2023-08-21T06:53:21;12.23;;;5.75;;
59788;SDS011;47353;51.614;5.530;2023-08-21T06:55:47;10.55;;;5.50;;
59788;SDS011;47353;51.614;5.530;2023-08-21T06:58:12;11.90;;;5.38;;
59788;SDS011;47353;51.614;5.530;2023-08-21T07:00:38;9.77;;;5.10;;
59788;SDS011;47353;51.614;5.530;2023-08-21T07:03:04;10.57;;;4.97;;
59788;SDS011;47353;51.614;5.530;2023-08-21T07:05:32;13.13;;;4.72;;
59788;SDS011;47353;51.614;5.530;2023-08-21T07:07:58;10.38;;;4.40;;
59788;SDS011;47353;51.614;5.530;2023-08-21T07:10:23;8.45;;;3.90;;
59788;SDS011;47353;51.614;5.530;2023-08-21T07:12:49;14.73;;;3.47;;
59788;SDS011;47353;51.614;5.530;2023-08-21T07:15:14;9.25;;;3.30;;
59788;SDS011;47353;51.614;5.530;2023-08-21T07:17:40;10.27;;;3.13;;
59788;SDS011;47353;51.614;5.530;2023-08-21T07:20:06;9.90;;;2.90;;
59788;SDS011;47353;51.614;5.530;2023-08-21T07:22:32;9.85;;;3.03;;
59788;SDS011;47353;51.614;5.530;2023-08-21T07:24:58;7.05;;;2.90;;
59788;SDS011;47353;51.614;5.530;2023-08-21T07:27:25;5.72;;;2.90;;
59788;SDS011;47353;51.614;5.530;2023-08-21T07:29:51;7.55;;;2.80;;
59788;SDS011;47353;51.614;5.530;2023-08-21T07:32:16;6.68;;;2.67;;
59788;SDS011;47353;51.614;5.530;2023-08-21T07:34:41;9.32;;;2.88;;
59788;SDS011;47353;51.614;5.530;2023-08-21T07:37:07;8.25;;;2.90;;
59788;SDS011;47353;51.614;5.530;2023-08-21T07:39:34;6.93;;;2.20;;
59788;SDS011;47353;51.614;5.530;2023-08-21T07:41:59;7.47;;;2.63;;
59788;SDS011;47353;51.614;5.530;2023-08-21T07:44:25;7.55;;;2.50;;
59788;SDS011;47353;51.614;5.530;2023-08-21T07:46:51;5.20;;;2.25;;
59788;SDS011;47353;51.614;5.530;2023-08-21T07:49:16;6.45;;;2.20;;
59788;SDS011;47353;51.614;5.530;2023-08-21T07:51:42;4.93;;;1.95;;
59788;SDS011;47353;51.614;5.530;2023-08-21T07:54:07;6.70;;;1.80;;
59788;SDS011;47353;51.614;5.530;2023-08-21T07:56:32;5.68;;;1.95;;
59788;SDS011;47353;51.614;5.530;2023-08-21T07:59:00;7.25;;;2.00;;
59788;SDS011;47353;51.614;5.530;2023-08-21T08:01:26;7.55;;;2.15;;
59788;SDS011;47353;51.614;5.530;2023-08-21T08:03:52;7.05;;;2.42;;
59788;SDS011;47353;51.614;5.530;2023-08-21T08:06:17;7.75;;;2.50;;
59788;SDS011;47353;51.614;5.530;2023-08-21T08:08:43;8.98;;;2.72;;
59788;SDS011;47353;51.614;5.530;2023-08-21T08:11:09;6.50;;;2.40;;
59788;SDS011;47353;51.614;5.530;2023-08-21T08:13:34;8.70;;;2.63;;
59788;SDS011;47353;51.614;5.530;2023-08-21T08:16:00;7.78;;;2.22;;
59788;SDS011;47353;51.614;5.530;2023-08-21T08:18:25;8.13;;;2.17;;
59788;SDS011;47353;51.614;5.530;2023-08-21T08:20:51;6.15;;;2.00;;
59788;SDS011;47353;51.614;5.530;2023-08-21T08:23:16;5.93;;;1.95;;
59788;SDS011;47353;51.614;5.530;2023-08-21T08:25:42;6.95;;;1.60;;
59788;SDS011;47353;51.614;5.530;2023-08-21T08:28:07;5.28;;;1.42;;
59788;SDS011;47353;51.614;5.530;2023-08-21T08:30:33;6.35;;;1.73;;
59788;SDS011;47353;51.614;5.530;2023-08-21T08:32:59;8.57;;;1.67;;
59788;SDS011;47353;51.614;5.530;2023-08-21T08:35:25;7.15;;;1.65;;
59788;SDS011;47353;51.614;5.530;2023-08-21T08:37:51;5.25;;;1.35;;
59788;SDS011;47353;51.614;5.530;2023-08-21T08:40:16;7.97;;;1.52;;
59788;SDS011;47353;51.614;5.530;2023-08-21T08:42:42;9.23;;;1.83;;
59788;SDS011;47353;51.614;5.530;2023-08-21T08:45:07;7.95;;;1.60;;
59788;SDS011;47353;51.614;5.530;2023-08-21T08:47:33;8.13;;;2.03;;
59788;SDS011;47353;51.614;5.530;2023-08-21T08:50:03;5.28;;;1.63;;
59788;SDS011;47353;51.614;5.530;2023-08-21T08:52:37;5.18;;;1.80;;
59788;SDS011;47353;51.614;5.530;2023-08-21T08:55:04;6.30;;;1.73;;
59788;SDS011;47353;51.614;5.530;2023-08-21T08:57:31;11.20;;;1.80;;
59788;SDS011;47353;51.614;5.530;2023-08-21T08:59:57;8.30;;;1.50;;
59788;SDS011;47353;51.614;5.530;2023-08-21T09:02:24;4.47;;;1.25;;
59788;SDS011;47353;51.614;5.530;2023-08-21T09:04:51;5.30;;;1.55;;
59788;SDS011;47353;51.614;5.530;2023-08-21T09:07:17;5.43;;;1.60;;
59788;SDS011;47353;51.614;5.530;2023-08-21T09:09:47;6.43;;;1.48;;
59788;SDS011;47353;51.614;5.530;2023-08-21T09:12:15;5.63;;;1.60;;
59788;SDS011;47353;51.614;5.530;2023-08-21T09:14:41;5.47;;;1.40;;
59788;SDS011;47353;51.614;5.530;2023-08-21T09:17:08;4.63;;;1.20;;
59788;SDS011;47353;51.614;5.530;2023-08-21T09:19:34;6.72;;;1.50;;
59788;SDS011;47353;51.614;5.530;2023-08-21T09:24:36;4.75;;;1.23;;
59788;SDS011;47353;51.614;5.530;2023-08-21T09:27:03;8.60;;;1.75;;
59788;SDS011;47353;51.614;5.530;2023-08-21T09:29:39;5.30;;;1.30;;
59788;SDS011;47353;51.614;5.530;2023-08-21T09:32:08;5.35;;;1.80;;
59788;SDS011;47353;51.614;5.530;2023-08-21T09:34:36;5.78;;;1.60;;
59788;SDS011;47353;51.614;5.530;2023-08-21T09:37:05;6.68;;;1.50;;
59788;SDS011;47353;51.614;5.530;2023-08-21T09:39:35;5.55;;;1.58;;
59788;SDS011;47353;51.614;5.530;2023-08-21T09:42:05;6.32;;;1.70;;
59788;SDS011;47353;51.614;5.530;2023-08-21T09:44:35;6.07;;;1.30;;
59788;SDS011;47353;51.614;5.530;2023-08-21T09:47:02;5.75;;;1.70;;
59788;SDS011;47353;51.614;5.530;2023-08-21T09:49:28;6.82;;;1.60;;
59788;SDS011;47353;51.614;5.530;2023-08-21T09:51:54;5.03;;;1.55;;
59788;SDS011;47353;51.614;5.530;2023-08-21T09:54:20;7.80;;;1.77;;
59788;SDS011;47353;51.614;5.530;2023-08-21T09:56:46;6.07;;;1.50;;
59788;SDS011;47353;51.614;5.530;2023-08-21T09:59:14;7.38;;;1.70;;
59788;SDS011;47353;51.614;5.530;2023-08-21T10:01:40;4.75;;;1.60;;
59788;SDS011;47353;51.614;5.530;2023-08-21T10:04:06;6.43;;;1.40;;
59788;SDS011;47353;51.614;5.530;2023-08-21T10:06:34;3.95;;;1.30;;
59788;SDS011;47353;51.614;5.530;2023-08-21T10:08:59;6.03;;;1.38;;
59788;SDS011;47353;51.614;5.530;2023-08-21T10:11:25;2.83;;;1.33;;
59788;SDS011;47353;51.614;5.530;2023-08-21T10:13:51;6.03;;;1.75;;
59788;SDS011;47353;51.614;5.530;2023-08-21T10:16:17;6.93;;;1.90;;
59788;SDS011;47353;51.614;5.530;2023-08-21T10:18:44;5.72;;;1.50;;
59788;SDS011;47353;51.614;5.530;2023-08-21T10:21:20;9.60;;;2.00;;
59788;SDS011;47353;51.614;5.530;2023-08-21T10:23:47;4.63;;;1.40;;
59788;SDS011;47353;51.614;5.530;2023-08-21T10:26:14;4.85;;;1.48;;
59788;SDS011;47353;51.614;5.530;2023-08-21T10:28:44;5.00;;;1.70;;
59788;SDS011;47353;51.614;5.530;2023-08-21T10:34:07;4.30;;;1.30;;
59788;SDS011;47353;51.614;5.530;2023-08-21T10:39:24;4.90;;;1.85;;
59788;SDS011;47353;51.614;5.530;2023-08-21T10:47:13;6.75;;;1.80;;
59788;SDS011;47353;51.614;5.530;2023-08-21T10:49:50;3.38;;;1.30;;
59788;SDS011;47353;51.614;5.530;2023-08-21T10:53:00;3.80;;;1.40;;
59788;SDS011;47353;51.614;5.530;2023-08-21T10:55:10;3.72;;;1.30;;
59788;SDS011;47353;51.614;5.530;2023-08-21T10:57:36;5.38;;;1.60;;
59788;SDS011;47353;51.614;5.530;2023-08-21T11:00:06;3.92;;;1.30;;
59788;SDS011;47353;51.614;5.530;2023-08-21T11:02:37;4.10;;;1.30;;
59788;SDS011;47353;51.614;5.530;2023-08-21T11:05:04;2.30;;;0.82;;
59788;SDS011;47353;51.614;5.530;2023-08-21T11:07:30;13.05;;;7.82;;
59788;SDS011;47353;51.614;5.530;2023-08-21T11:10:01;5.40;;;1.30;;
59788;SDS011;47353;51.614;5.530;2023-08-21T11:12:28;5.20;;;2.10;;
59788;SDS011;47353;51.614;5.530;2023-08-21T11:14:53;4.78;;;1.15;;
59788;SDS011;47353;51.614;5.530;2023-08-21T11:17:19;3.35;;;1.20;;
59788;SDS011;47353;51.614;5.530;2023-08-21T11:19:44;3.78;;;1.23;;
59788;SDS011;47353;51.614;5.530;2023-08-21T11:22:10;5.65;;;2.17;;
59788;SDS011;47353;51.614;5.530;2023-08-21T11:27:02;3.63;;;1.48;;
59788;SDS011;47353;51.614;5.530;2023-08-21T11:29:37;5.57;;;1.40;;
59788;SDS011;47353;51.614;5.530;2023-08-21T11:32:14;5.35;;;1.20;;
59788;SDS011;47353;51.614;5.530;2023-08-21T11:34:56;4.60;;;1.00;;
59788;SDS011;47353;51.614;5.530;2023-08-21T11:37:23;3.55;;;1.00;;
59788;SDS011;47353;51.614;5.530;2023-08-21T11:39:54;3.83;;;1.70;;
59788;SDS011;47353;51.614;5.530;2023-08-21T11:42:22;4.22;;;1.30;;
59788;SDS011;47353;51.614;5.530;2023-08-21T11:44:54;4.10;;;1.40;;
59788;SDS011;47353;51.614;5.530;2023-08-21T11:47:20;3.47;;;1.30;;
59788;SDS011;47353;51.614;5.530;2023-08-21T11:49:47;5.05;;;1.15;;
59788;SDS011;47353;51.614;5.530;2023-08-21T11:52:19;3.63;;;1.30;;
59788;SDS011;47353;51.614;5.530;2023-08-21T11:54:47;5.95;;;1.67;;
59788;SDS011;47353;51.614;5.530;2023-08-21T11:57:14;3.42;;;1.40;;
59788;SDS011;47353;51.614;5.530;2023-08-21T11:59:40;5.88;;;1.13;;
59788;SDS011;47353;51.614;5.530;2023-08-21T12:02:10;3.15;;;0.98;;
59788;SDS011;47353;51.614;5.530;2023-08-21T12:07:30;4.60;;;1.38;;
59788;SDS011;47353;51.614;5.530;2023-08-21T12:09:55;3.25;;;1.60;;
59788;SDS011;47353;51.614;5.530;2023-08-21T12:12:21;6.13;;;1.73;;
59788;SDS011;47353;51.614;5.530;2023-08-21T12:14:46;5.50;;;2.35;;
59788;SDS011;47353;51.614;5.530;2023-08-21T12:17:12;4.68;;;1.65;;
59788;SDS011;47353;51.614;5.530;2023-08-21T12:19:37;4.32;;;1.50;;
59788;SDS011;47353;51.614;5.530;2023-08-21T12:22:03;8.73;;;1.90;;
59788;SDS011;47353;51.614;5.530;2023-08-21T12:24:29;3.22;;;1.70;;
59788;SDS011;47353;51.614;5.530;2023-08-21T12:26:54;4.25;;;1.50;;
59788;SDS011;47353;51.614;5.530;2023-08-21T12:29:21;5.10;;;1.85;;
59788;SDS011;47353;51.614;5.530;2023-08-21T12:31:46;7.32;;;1.52;;
59788;SDS011;47353;51.614;5.530;2023-08-21T12:34:12;4.05;;;1.40;;
59788;SDS011;47353;51.614;5.530;2023-08-21T12:36:37;4.40;;;1.33;;
59788;SDS011;47353;51.614;5.530;2023-08-21T12:39:03;4.07;;;1.73;;
59788;SDS011;47353;51.614;5.530;2023-08-21T12:41:29;3.92;;;1.10;;
59788;SDS011;47353;51.614;5.530;2023-08-21T12:43:55;4.43;;;1.20;;
59788;SDS011;47353;51.614;5.530;2023-08-21T12:46:20;4.10;;;1.25;;
59788;SDS011;47353;51.614;5.530;2023-08-21T12:48:46;3.20;;;1.40;;
59788;SDS011;47353;51.614;5.530;2023-08-21T12:51:11;4.47;;;1.10;;
59788;SDS011;47353;51.614;5.530;2023-08-21T12:53:37;5.78;;;1.35;;
59788;SDS011;47353;51.614;5.530;2023-08-21T12:56:02;3.17;;;1.13;;
59788;SDS011;47353;51.614;5.530;2023-08-21T12:58:28;6.82;;;1.58;;
59788;SDS011;47353;51.614;5.530;2023-08-21T13:00:54;4.00;;;1.15;;
59788;SDS011;47353;51.614;5.530;2023-08-21T13:03:20;4.13;;;1.25;;
59788;SDS011;47353;51.614;5.530;2023-08-21T13:05:45;4.45;;;1.38;;
59788;SDS011;47353;51.614;5.530;2023-08-21T13:08:11;3.72;;;1.10;;
59788;SDS011;47353;51.614;5.530;2023-08-21T13:10:36;4.28;;;1.30;;
59788;SDS011;47353;51.614;5.530;2023-08-21T13:13:02;4.78;;;1.10;;
59788;SDS011;47353;51.614;5.530;2023-08-21T13:15:28;4.93;;;1.30;;
59788;SDS011;47353;51.614;5.530;2023-08-21T13:17:53;3.58;;;1.33;;
59788;SDS011;47353;51.614;5.530;2023-08-21T13:20:19;4.50;;;1.15;;
59788;SDS011;47353;51.614;5.530;2023-08-21T13:22:48;4.90;;;1.48;;
59788;SDS011;47353;51.614;5.530;2023-08-21T13:25:21;3.00;;;1.10;;
59788;SDS011;47353;51.614;5.530;2023-08-21T13:27:48;4.70;;;1.10;;
59788;SDS011;47353;51.614;5.530;2023-08-21T13:30:15;3.30;;;1.10;;
59788;SDS011;47353;51.614;5.530;2023-08-21T13:32:40;4.18;;;1.05;;
59788;SDS011;47353;51.614;5.530;2023-08-21T13:35:06;4.35;;;1.23;;
59788;SDS011;47353;51.614;5.530;2023-08-21T13:37:33;5.43;;;1.10;;
59788;SDS011;47353;51.614;5.530;2023-08-21T13:39:59;4.05;;;1.40;;
59788;SDS011;47353;51.614;5.530;2023-08-21T13:42:26;4.00;;;1.17;;
59788;SDS011;47353;51.614;5.530;2023-08-21T13:44:55;3.42;;;1.25;;
59788;SDS011;47353;51.614;5.530;2023-08-21T13:47:22;5.15;;;1.20;;
59788;SDS011;47353;51.614;5.530;2023-08-21T13:49:47;4.38;;;1.10;;
59788;SDS011;47353;51.614;5.530;2023-08-21T13:52:13;5.22;;;1.20;;
59788;SDS011;47353;51.614;5.530;2023-08-21T13:54:38;5.43;;;1.38;;
59788;SDS011;47353;51.614;5.530;2023-08-21T13:57:03;3.67;;;1.20;;
59788;SDS011;47353;51.614;5.530;2023-08-21T13:59:29;3.95;;;1.20;;
59788;SDS011;47353;51.614;5.530;2023-08-21T14:01:54;4.00;;;1.20;;
59788;SDS011;47353;51.614;5.530;2023-08-21T14:04:19;3.17;;;1.10;;
59788;SDS011;47353;51.614;5.530;2023-08-21T14:06:45;4.28;;;1.05;;
59788;SDS011;47353;51.614;5.530;2023-08-21T14:09:10;2.27;;;1.00;;
59788;SDS011;47353;51.614;5.530;2023-08-21T14:11:36;3.03;;;0.90;;
59788;SDS011;47353;51.614;5.530;2023-08-21T14:14:01;3.08;;;1.02;;
59788;SDS011;47353;51.614;5.530;2023-08-21T14:16:26;3.80;;;1.17;;
59788;SDS011;47353;51.614;5.530;2023-08-21T14:18:52;3.28;;;1.20;;
59788;SDS011;47353;51.614;5.530;2023-08-21T14:21:17;5.43;;;1.50;;
59788;SDS011;47353;51.614;5.530;2023-08-21T14:23:43;3.08;;;1.10;;
59788;SDS011;47353;51.614;5.530;2023-08-21T14:26:08;3.63;;;1.45;;
59788;SDS011;47353;51.614;5.530;2023-08-21T14:28:33;4.75;;;1.20;;
59788;SDS011;47353;51.614;5.530;2023-08-21T14:30:59;4.50;;;1.17;;
59788;SDS011;47353;51.614;5.530;2023-08-21T14:33:24;2.25;;;0.70;;
59788;SDS011;47353;51.614;5.530;2023-08-21T14:35:49;2.67;;;0.80;;
59788;SDS011;47353;51.614;5.530;2023-08-21T14:38:15;2.58;;;0.90;;
59788;SDS011;47353;51.614;5.530;2023-08-21T14:40:41;2.75;;;0.80;;
59788;SDS011;47353;51.614;5.530;2023-08-21T14:43:06;3.70;;;0.90;;
59788;SDS011;47353;51.614;5.530;2023-08-21T14:45:32;1.80;;;0.70;;
59788;SDS011;47353;51.614;5.530;2023-08-21T14:47:57;2.10;;;0.73;;
59788;SDS011;47353;51.614;5.530;2023-08-21T14:50:22;4.63;;;0.70;;
59788;SDS011;47353;51.614;5.530;2023-08-21T14:52:48;2.28;;;0.90;;
59788;SDS011;47353;51.614;5.530;2023-08-21T14:55:13;2.55;;;0.88;;
59788;SDS011;47353;51.614;5.530;2023-08-21T14:57:39;4.35;;;0.80;;
59788;SDS011;47353;51.614;5.530;2023-08-21T15:00:04;3.15;;;0.80;;
59788;SDS011;47353;51.614;5.530;2023-08-21T15:02:30;2.60;;;0.90;;
59788;SDS011;47353;51.614;5.530;2023-08-21T15:04:56;5.13;;;0.85;;
59788;SDS011;47353;51.614;5.530;2023-08-21T15:07:21;1.92;;;0.70;;